Mones Cazon, Argentina
Current Conditions -  °F | °C
As of 7:00 AM on Saturday 20 Dec 2014 (Local Time) from SAEZ Reporting Station
Light Rain Light Rain  
Wind Chill: 19°   Ceiling: 2200
Heat Index: 19°   Visibility: 6mi
Dew Point: 17°   Wind: 8mph
Humidity: 88%   Direction: 180°S
Pressure: 29.62"   Gusts: NA
Location:  36.23°S, 62°W
Report Text: SAEZ 201000Z 18007KT 160V230 9999 -RA FEW009 BKN022 OVC07019/17 Q1003
Loading
Personal Weather Stations






























Interactive Weather Map New forecast layout! Learn more

10-Day Weather Forecast

Advertisements
Track Severe Weather on mobile